Latest Weather Observations for Cocos Island

IDW60801

Issued at 7:35 pm WST Saturday 1 November 2014 (issued every 30 minutes, with the page automatically refreshed every 10 minutes)

About weather observations | Map of weather stations | Latest weather observations for WA | Other Formats
Station Details ID: 200284 Name: COCOS ISLAND AIRPORT Lat: -12.19 Lon: 96.83 Height: 3.0 m
Data from the previous 72 hours. | See also: Recent months at Cocos Island
Date/Time
WST
Temp
°C
App
Temp
°C
Dew
Point
Rel
Hum
%
Delta-T
°C
Wind Press
QNH
hPa
Press
MSL
hPa
Rain
since 9 am
mm
Dir
 
Spd
km/h
Gust
km/h
Spd
kts
Gust
kts
01/07:30pm 26.4 26.1 22.5 79 2.6 ESE 28 35 15 19 1012.2 - 3.0
01/07:00pm 26.5 26.4 22.3 78 2.8 ESE 26 35 14 19 1011.8 - 3.0
01/06:30pm 26.7 27.2 22.6 78 2.8 ESE 24 33 13 18 1011.4 - 3.0
01/06:00pm 26.6 26.8 22.8 79 2.6 ESE 26 33 14 18 1011.1 - 3.0
01/05:30pm 26.5 27.2 23.6 84 2.0 ESE 26 35 14 19 1010.8 - 3.0
01/05:00pm 25.0 28.1 22.8 87 1.5 SE 11 19 6 10 1010.8 1010.8 3.0
01/04:30pm 28.0 28.4 22.5 72 3.7 ESE 24 30 13 16 1010.8 - 0.0
01/04:00pm 28.2 28.3 22.6 71 3.8 ESE 26 35 14 19 1011.0 - 0.0
01/03:30pm 27.8 29.6 22.5 73 3.6 SE 17 24 9 13 1011.1 - 0.0
01/03:00pm 27.9 28.3 22.4 72 3.7 SE 24 30 13 16 1011.5 - 0.0
01/02:30pm 28.2 28.2 22.4 71 3.9 ESE 26 35 14 19 1011.8 - 0.0
01/02:00pm 28.2 28.1 22.3 70 4.0 ESE 26 32 14 17 1012.1 1012.1 0.0
01/01:30pm 28.1 27.1 22.0 69 4.1 ESE 30 37 16 20 1012.4 - 0.0
01/01:00pm 28.3 27.9 22.4 70 4.0 ESE 28 37 15 20 1012.8 - 0.0
01/12:30pm 27.8 27.0 21.7 69 4.1 SE 28 37 15 20 1013.0 - 0.0
01/12:00pm 28.1 27.6 21.5 67 4.4 ESE 26 33 14 18 1013.1 - 0.0
01/11:30am 28.1 27.2 21.5 67 4.4 ESE 28 37 15 20 1013.3 - 0.0
01/11:00am 27.8 26.9 21.5 68 4.2 ESE 28 37 15 20 1013.3 1013.3 0.2
01/10:30am 27.6 26.6 21.9 71 3.8 ESE 30 39 16 21 1013.4 - 0.2
01/10:00am 27.3 26.7 21.9 72 3.6 ESE 28 35 15 19 1013.3 - 0.0
01/09:30am 26.7 26.2 22.1 76 3.1 SE 28 35 15 19 1013.0 - 0.0
01/09:00am 26.7 25.7 21.3 72 3.6 ESE 28 35 15 19 1012.7 - 0.0
01/08:30am 26.3 25.7 21.3 74 3.3 ESE 26 35 14 19 1012.3 - 0.0
01/08:00am 25.9 25.4 21.4 76 3.0 ESE 26 33 14 18 1012.1 1012.1 0.0
01/07:30am 25.8 24.9 21.4 76 2.9 ESE 28 35 15 19 1011.6 - 0.0
01/07:00am 25.6 24.5 21.1 76 3.0 ESE 28 37 15 20 1011.2 - 0.0
01/06:30am 25.7 24.6 21.8 79 2.6 ESE 30 37 16 20 1010.9 - 0.0
01/06:00am 25.6 25.2 21.7 79 2.6 ESE 26 33 14 18 1010.5 - 0.0
01/05:30am 25.7 25.1 21.2 76 3.0 ESE 26 33 14 18 1010.5 - 0.0
01/05:00am 25.6 24.7 21.4 77 2.8 ESE 28 33 15 18 1010.4 1010.4 0.0
01/04:30am 25.6 25.7 21.9 80 2.5 ESE 24 32 13 17 1010.6 - 0.0
01/04:00am 25.7 26.0 21.5 77 2.8 ESE 22 32 12 17 1010.8 - 0.0
01/03:30am 25.3 26.1 21.8 81 2.3 ESE 20 30 11 16 1011.1 - 0.0
01/03:00am 25.9 26.4 21.9 78 2.7 ESE 22 30 12 16 1011.2 - 0.0
01/02:30am 25.8 25.7 21.4 76 2.9 ESE 24 32 13 17 1011.4 - 0.0
01/02:00am 26.0 26.0 21.6 76 2.9 ESE 24 33 13 18 1011.7 1011.7 0.0
01/01:30am 26.1 25.7 21.6 76 3.0 ESE 26 37 14 20 1012.1 - 0.0
01/01:00am 26.1 25.7 21.6 76 3.0 ESE 26 33 14 18 1012.3 - 0.0
01/12:30am 26.1 25.1 21.3 75 3.2 ESE 28 35 15 19 1012.6 - 0.0
01/12:00am 26.1 25.7 21.6 76 3.0 ESE 26 35 14 19 1012.8 - 0.0
 
Date/Time
WST
Temp
°C
App
Temp
°C
Dew
Point
Rel
Hum
%
Delta-T
°C
Wind Press
QNH
hPa
Press
MSL
hPa
Rain
since 9 am
mm
Dir
 
Spd
km/h
Gust
km/h
Spd
kts
Gust
kts
31/11:30pm 26.2 25.7 21.5 75 3.1 ESE 26 37 14 20 1013.0 - 0.0
31/11:00pm 26.3 25.3 21.3 74 3.3 ESE 28 41 15 22 1013.1 1013.1 0.0
31/10:30pm 26.3 25.3 21.3 74 3.3 ESE 28 35 15 19 1012.8 - 0.0
31/10:00pm 26.4 26.1 21.8 76 3.1 ESE 26 35 14 19 1012.6 - 0.0
31/09:30pm 26.4 25.0 21.1 72 3.5 ESE 30 41 16 22 1012.3 - 0.0
31/09:00pm 26.5 25.6 21.5 74 3.3 ESE 28 39 15 21 1012.0 - 0.0
31/08:30pm 26.5 25.9 21.9 76 3.1 ESE 28 37 15 20 1011.9 - 0.0
31/08:00pm 26.6 25.5 21.8 75 3.2 ESE 30 39 16 21 1011.6 1011.6 0.0
31/07:30pm 26.6 26.1 21.5 73 3.4 ESE 26 35 14 19 1011.3 - 0.0
31/07:00pm 27.0 26.4 21.9 73 3.4 ESE 28 35 15 19 1011.1 - 0.0
31/06:30pm 27.1 26.1 21.9 73 3.5 ESE 30 39 16 21 1011.0 - 0.0
31/06:22pm 27.3 26.3 21.9 72 3.6 ESE 30 35 16 19 1010.9 - 0.0
31/06:06pm 27.4 26.5 21.4 70 4.0 ESE 28 37 15 20 1010.8 - 0.0
31/06:00pm 27.4 26.2 22.2 73 3.5 ESE 32 41 17 22 1010.7 - 0.0
31/05:30pm 27.6 26.0 21.6 70 4.0 ESE 32 39 17 21 1010.6 - 0.0
31/05:00pm 27.9 27.5 22.3 71 3.8 ESE 28 39 15 21 1010.5 1010.5 0.0
31/04:30pm 28.2 27.6 22.6 71 3.8 ESE 30 41 16 22 1010.5 - 0.0
31/04:00pm 28.2 26.4 21.6 67 4.4 ESE 33 44 18 24 1010.5 - 0.0
31/03:30pm 28.1 27.0 21.8 68 4.2 ESE 30 39 16 21 1010.8 - 0.0
31/03:00pm 28.4 27.4 21.9 68 4.4 ESE 30 41 16 22 1011.1 - 0.0
31/02:30pm 28.1 26.6 21.8 68 4.2 ESE 32 43 17 23 1011.4 - 0.0
31/02:00pm 28.3 26.9 21.9 68 4.3 ESE 32 41 17 22 1011.8 1011.8 0.0
31/01:30pm 28.0 26.6 21.2 66 4.5 ESE 30 39 16 21 1012.2 - 0.0
31/01:00pm 28.0 26.7 21.4 67 4.4 ESE 30 41 16 22 1012.5 - 0.0
31/12:30pm 28.2 27.7 22.1 69 4.1 ESE 28 37 15 20 1012.8 - 0.0
31/12:00pm 28.0 27.2 21.7 68 4.2 ESE 28 37 15 20 1013.1 - 0.0
31/11:30am 27.6 27.1 22.1 72 3.7 ESE 28 35 15 19 1013.2 - 0.0
31/11:00am 27.6 26.6 21.3 68 4.2 ESE 28 41 15 22 1013.4 1013.4 0.0
31/10:30am 27.3 26.0 21.3 69 4.0 ESE 30 39 16 21 1013.4 - 0.0
31/10:00am 27.5 26.9 21.3 69 4.1 ESE 26 35 14 19 1013.3 - 0.0
31/09:30am 27.2 26.6 21.2 69 4.0 ESE 26 35 14 19 1013.2 - 0.0
31/09:00am 26.9 26.4 21.5 72 3.6 ESE 26 32 14 17 1013.2 - 0.0
31/08:30am 26.4 25.6 20.8 71 3.7 ESE 26 35 14 19 1012.9 - 0.0
31/08:00am 26.1 26.1 21.7 77 2.9 ESE 24 30 13 16 1012.5 1012.5 0.0
31/07:30am 25.8 25.7 21.4 76 2.9 ESE 24 32 13 17 1012.2 - 0.0
31/07:00am 25.7 25.0 21.0 75 3.1 ESE 26 35 14 19 1012.0 - 0.0
31/06:30am 25.7 25.2 21.5 77 2.8 ESE 26 33 14 18 1011.9 - 0.0
31/06:00am 25.6 25.1 21.4 77 2.8 ESE 26 32 14 17 1011.7 - 0.0
31/05:30am 25.7 25.5 22.0 80 2.5 SE 26 32 14 17 1011.5 - 0.0
31/05:00am 25.8 24.9 21.4 76 2.9 SE 28 35 15 19 1011.4 1011.4 0.0
31/04:30am 25.8 25.3 22.1 80 2.5 ESE 28 35 15 19 1011.4 - 0.0
31/04:00am 25.8 25.4 21.6 77 2.8 ESE 26 33 14 18 1011.4 - 0.0
31/03:30am 26.0 25.3 21.0 74 3.3 SE 26 35 14 19 1011.5 - 0.0
31/03:00am 26.0 26.1 21.8 77 2.8 SE 24 33 13 18 1011.8 - 0.0
31/02:30am 26.0 26.2 22.1 79 2.6 SE 24 32 13 17 1012.0 - 0.0
31/02:00am 26.0 25.5 21.5 76 3.0 ESE 26 32 14 17 1012.4 1012.4 0.0
31/01:30am 26.1 25.8 21.9 77 2.8 ESE 26 37 14 20 1012.7 - 0.0
31/01:00am 26.2 26.5 22.2 78 2.7 ESE 24 32 13 17 1013.0 - 0.0
31/12:30am 26.2 25.9 21.9 77 2.9 ESE 26 32 14 17 1013.1 - 0.0
31/12:00am 26.3 25.7 22.0 77 2.9 ESE 28 33 15 18 1013.4 - 0.0
 
Date/Time
WST
Temp
°C
App
Temp
°C
Dew
Point
Rel
Hum
%
Delta-T
°C
Wind Press
QNH
hPa
Press
MSL
hPa
Rain
since 9 am
mm
Dir
 
Spd
km/h
Gust
km/h
Spd
kts
Gust
kts
30/11:30pm 26.4 26.4 22.4 78 2.7 ESE 26 32 14 17 1013.5 - 0.0
30/11:00pm 26.4 26.6 22.1 77 2.9 ESE 24 32 13 17 1013.5 1013.5 0.0
30/10:30pm 26.4 26.1 21.8 76 3.1 ESE 26 32 14 17 1013.5 - 0.0
30/10:00pm 26.6 26.4 22.0 76 3.1 ESE 26 39 14 21 1013.3 - 0.0
30/09:30pm 26.5 26.7 22.0 76 3.0 ESE 24 32 13 17 1013.3 - 0.0
30/09:00pm 26.6 27.3 22.3 77 2.9 ESE 22 32 12 17 1013.1 - 0.0
30/08:30pm 26.5 26.9 22.5 78 2.7 ESE 24 32 13 17 1012.9 - 0.0
30/08:00pm 26.6 26.9 21.6 74 3.3 ESE 22 30 12 16 1012.5 1012.5 0.0
30/07:30pm 26.6 26.6 21.7 74 3.3 ESE 24 30 13 16 1012.3 - 0.0
30/07:00pm 26.9 27.5 22.1 75 3.2 ESE 22 35 12 19 1011.9 - 0.0
30/06:30pm 27.1 27.8 22.2 74 3.3 ESE 22 32 12 17 1011.5 - 0.0
30/06:00pm 27.8 28.0 22.0 70 3.9 ESE 24 32 13 17 1011.4 - 0.0
30/05:30pm 27.8 27.6 21.3 67 4.3 ESE 24 33 13 18 1011.2 - 0.0
30/05:00pm 28.2 28.5 22.3 70 4.0 ESE 24 33 13 18 1011.3 1011.3 0.0
30/04:30pm 28.6 28.2 21.7 66 4.6 ESE 26 35 14 19 1011.4 - 0.0
30/04:00pm 28.4 28.2 22.0 68 4.3 ESE 26 35 14 19 1011.7 - 0.0
30/03:30pm 28.5 28.3 22.0 68 4.4 ESE 26 39 14 21 1011.5 - 0.0
30/03:00pm 28.2 27.0 21.6 67 4.4 E 30 37 16 20 1011.7 - 0.0
30/02:30pm 28.3 27.4 21.4 66 4.6 ESE 28 35 15 19 1011.9 - 0.0
30/02:00pm 28.6 28.2 20.9 63 5.1 ESE 24 37 13 20 1012.3 1012.3 0.0
30/01:30pm 28.6 28.6 22.4 69 4.2 E 26 35 14 19 1012.7 - 0.0
30/01:00pm 27.4 27.2 22.0 72 3.6 ESE 26 35 14 19 1013.0 - 0.0
30/12:30pm 27.9 28.0 21.8 69 4.1 ESE 24 35 13 19 1013.4 - 0.0
30/12:00pm 28.2 27.5 21.8 68 4.3 ESE 28 35 15 19 1013.7 - 0.0
30/11:30am 27.8 27.4 21.7 69 4.1 ESE 26 35 14 19 1013.9 - 0.0
30/11:00am 27.4 27.9 22.7 75 3.2 E 24 32 13 17 1014.1 1014.1 0.8
30/10:30am 27.3 26.6 21.1 69 4.1 ESE 26 33 14 18 1014.0 - 0.8
30/10:00am 27.4 27.5 21.9 72 3.7 E 24 33 13 18 1014.0 - 0.6
30/09:30am 26.6 25.6 21.3 72 3.5 E 28 35 15 19 1014.0 - 0.6
30/09:00am 26.4 26.7 22.2 78 2.8 E 24 30 13 16 1013.9 - 0.6
30/08:30am 25.7 27.7 23.0 85 1.8 ESE 17 20 9 11 1013.6 - 0.6
30/08:00am 25.6 27.1 22.0 80 2.4 E 17 22 9 12 1013.2 1013.2 0.0
30/07:30am 25.6 26.3 21.5 78 2.7 ESE 20 28 11 15 1012.7 - 0.0
30/07:00am 25.6 24.7 21.5 78 2.7 ESE 28 35 15 19 1012.5 - 0.0
30/06:30am 25.7 24.9 21.6 78 2.7 ESE 28 35 15 19 1012.1 - 0.0
30/06:00am 25.7 25.8 21.2 76 3.0 ESE 22 28 12 15 1012.0 - 0.0
30/05:30am 25.6 25.2 20.9 75 3.1 ESE 24 32 13 17 1011.9 - 0.0
30/05:00am 25.6 24.3 20.7 74 3.2 ESE 28 35 15 19 1011.7 1011.7 0.0
30/04:30am 25.6 25.0 21.2 76 2.9 ESE 26 35 14 19 1011.6 - 0.0
30/04:00am 25.8 25.8 21.7 78 2.7 ESE 24 32 13 17 1011.6 - 0.0
30/03:30am 25.7 25.6 21.5 77 2.8 ESE 24 32 13 17 1011.7 - 0.0
30/03:00am 25.8 24.5 21.3 76 3.0 ESE 30 35 16 19 1011.9 - 0.0
30/02:30am 26.0 24.7 21.3 75 3.1 ESE 30 37 16 20 1012.3 - 0.0
30/02:00am 26.0 25.0 22.0 78 2.7 ESE 30 37 16 20 1012.6 1012.6 0.0
30/01:30am 26.1 25.2 21.4 75 3.1 ESE 28 37 15 20 1012.8 - 0.0
30/01:00am 26.2 25.2 22.0 77 2.8 SE 30 37 16 20 1013.1 - 0.0
30/12:30am 26.2 25.3 21.5 75 3.1 SE 28 35 15 19 1013.5 - 0.0
30/12:00am 26.2 26.0 22.0 77 2.8 SE 26 32 14 17 1013.8 - 0.0
 
Date/Time
WST
Temp
°C
App
Temp
°C
Dew
Point
Rel
Hum
%
Delta-T
°C
Wind Press
QNH
hPa
Press
MSL
hPa
Rain
since 9 am
mm
Dir
 
Spd
km/h
Gust
km/h
Spd
kts
Gust
kts
29/11:30pm 26.3 25.7 22.0 77 2.9 ESE 28 39 15 21 1013.9 - 0.0
29/11:00pm 26.3 25.5 21.6 75 3.1 ESE 28 37 15 20 1013.9 1013.9 0.0
29/10:30pm 26.4 25.1 22.1 77 2.9 ESE 32 41 17 22 1013.8 - 0.0
29/10:00pm 26.6 25.2 22.3 77 2.9 SE 33 41 18 22 1013.6 - 0.0
29/09:30pm 26.4 25.6 22.4 78 2.7 SE 30 37 16 20 1013.4 - 0.0

Other Formats:

Comma delimited format used in spreadsheet applications
http://www.bom.gov.au/fwo/IDW60801/IDW60801.96996.axf

JavaScript Object Notation format (JSON) in row-major order
http://www.bom.gov.au/fwo/IDW60801/IDW60801.96996.json